Terminal Aerodrome Forecast
Issued by NWS

Home | Current Version | Previous Version | Text Only | Print | Product List | Glossary On
Versions: 1 2 3 4 5 6 7 8 9 10 11 12 13 14 15 16 17 18 19 20 21 22 23 24
000
FTUS43 KIND 201800 AAA
TAFBMG
TAF AMD
KBMG 201814Z 2018/2118 24010KT P6SM BKN035
     FM202200 27008KT P6SM BKN035
     FM210300 32004KT P6SM SCT035
     FM210800 31003KT 4SM BR BKN250
     FM211500 33008KT P6SM BKN030=

USA.gov is the U.S. government's official web portal to all federal, state and local government web resources and services.